sensor_id;sensor_type;location;lat;lon;timestamp;P1;durP1;ratioP1;P2;durP2;ratioP2
77586;SDS011;66744;49.716;17.158;2024-03-06T00:00:33;25.92;;;14.30;;
77586;SDS011;66744;49.716;17.158;2024-03-06T00:03:38;32.30;;;16.08;;
77586;SDS011;66744;49.716;17.158;2024-03-06T00:06:41;30.42;;;16.27;;
77586;SDS011;66744;49.716;17.158;2024-03-06T00:09:44;32.60;;;16.35;;
77586;SDS011;66744;49.716;17.158;2024-03-06T00:12:47;36.42;;;16.05;;
77586;SDS011;66744;49.716;17.158;2024-03-06T00:15:53;32.97;;;16.85;;
77586;SDS011;66744;49.716;17.158;2024-03-06T00:18:55;29.80;;;15.52;;
77586;SDS011;66744;49.716;17.158;2024-03-06T00:22:00;33.53;;;15.90;;
77586;SDS011;66744;49.716;17.158;2024-03-06T00:25:05;36.47;;;17.23;;
77586;SDS011;66744;49.716;17.158;2024-03-06T00:28:07;30.02;;;16.63;;
77586;SDS011;66744;49.716;17.158;2024-03-06T00:31:09;30.55;;;16.13;;
77586;SDS011;66744;49.716;17.158;2024-03-06T00:34:11;29.73;;;14.70;;
77586;SDS011;66744;49.716;17.158;2024-03-06T00:37:16;27.55;;;14.65;;
77586;SDS011;66744;49.716;17.158;2024-03-06T00:40:20;24.23;;;13.93;;
77586;SDS011;66744;49.716;17.158;2024-03-06T00:43:22;32.22;;;15.45;;
77586;SDS011;66744;49.716;17.158;2024-03-06T00:46:24;29.75;;;14.98;;
77586;SDS011;66744;49.716;17.158;2024-03-06T00:49:27;27.85;;;15.25;;
77586;SDS011;66744;49.716;17.158;2024-03-06T00:52:29;29.70;;;14.57;;
77586;SDS011;66744;49.716;17.158;2024-03-06T00:55:31;28.73;;;14.35;;
77586;SDS011;66744;49.716;17.158;2024-03-06T00:58:32;24.20;;;12.63;;
77586;SDS011;66744;49.716;17.158;2024-03-06T01:01:34;22.60;;;12.30;;
77586;SDS011;66744;49.716;17.158;2024-03-06T01:04:37;25.63;;;13.57;;
77586;SDS011;66744;49.716;17.158;2024-03-06T01:07:40;24.98;;;14.23;;
77586;SDS011;66744;49.716;17.158;2024-03-06T01:10:41;30.08;;;14.40;;
77586;SDS011;66744;49.716;17.158;2024-03-06T01:13:44;30.25;;;14.00;;
77586;SDS011;66744;49.716;17.158;2024-03-06T01:16:46;28.15;;;13.98;;
77586;SDS011;66744;49.716;17.158;2024-03-06T01:19:48;24.95;;;12.18;;
77586;SDS011;66744;49.716;17.158;2024-03-06T01:22:53;24.23;;;12.82;;
77586;SDS011;66744;49.716;17.158;2024-03-06T01:25:55;30.00;;;14.30;;
77586;SDS011;66744;49.716;17.158;2024-03-06T01:28:59;31.85;;;13.00;;
77586;SDS011;66744;49.716;17.158;2024-03-06T01:32:02;27.77;;;13.50;;
77586;SDS011;66744;49.716;17.158;2024-03-06T01:35:07;26.83;;;12.82;;
77586;SDS011;66744;49.716;17.158;2024-03-06T01:38:11;26.50;;;13.57;;
77586;SDS011;66744;49.716;17.158;2024-03-06T01:41:14;22.67;;;12.20;;
77586;SDS011;66744;49.716;17.158;2024-03-06T01:44:19;24.75;;;11.27;;
77586;SDS011;66744;49.716;17.158;2024-03-06T01:47:22;23.30;;;12.35;;
77586;SDS011;66744;49.716;17.158;2024-03-06T01:50:25;21.50;;;11.85;;
77586;SDS011;66744;49.716;17.158;2024-03-06T01:53:29;23.13;;;11.85;;
77586;SDS011;66744;49.716;17.158;2024-03-06T01:56:35;27.13;;;11.68;;
77586;SDS011;66744;49.716;17.158;2024-03-06T01:59:37;25.30;;;12.60;;
77586;SDS011;66744;49.716;17.158;2024-03-06T02:02:42;24.33;;;13.15;;
77586;SDS011;66744;49.716;17.158;2024-03-06T02:05:44;25.48;;;12.52;;
77586;SDS011;66744;49.716;17.158;2024-03-06T02:08:47;25.40;;;12.98;;
77586;SDS011;66744;49.716;17.158;2024-03-06T02:11:49;22.38;;;11.77;;
77586;SDS011;66744;49.716;17.158;2024-03-06T02:17:57;24.30;;;12.20;;
77586;SDS011;66744;49.716;17.158;2024-03-06T02:20:58;22.58;;;11.90;;
77586;SDS011;66744;49.716;17.158;2024-03-06T02:24:00;21.05;;;12.15;;
77586;SDS011;66744;49.716;17.158;2024-03-06T02:27:03;27.33;;;13.48;;
77586;SDS011;66744;49.716;17.158;2024-03-06T02:30:07;23.33;;;10.90;;
77586;SDS011;66744;49.716;17.158;2024-03-06T02:33:15;19.45;;;10.90;;
77586;SDS011;66744;49.716;17.158;2024-03-06T02:36:19;22.17;;;11.07;;
77586;SDS011;66744;49.716;17.158;2024-03-06T02:39:22;21.27;;;11.50;;
77586;SDS011;66744;49.716;17.158;2024-03-06T02:42:25;25.15;;;12.45;;
77586;SDS011;66744;49.716;17.158;2024-03-06T02:45:30;26.45;;;12.30;;
77586;SDS011;66744;49.716;17.158;2024-03-06T02:48:32;26.25;;;13.15;;
77586;SDS011;66744;49.716;17.158;2024-03-06T02:51:34;25.88;;;12.93;;
77586;SDS011;66744;49.716;17.158;2024-03-06T02:54:35;23.05;;;13.13;;
77586;SDS011;66744;49.716;17.158;2024-03-06T02:57:37;22.52;;;11.90;;
77586;SDS011;66744;49.716;17.158;2024-03-06T03:00:39;21.70;;;12.07;;
77586;SDS011;66744;49.716;17.158;2024-03-06T03:03:41;29.33;;;13.55;;
77586;SDS011;66744;49.716;17.158;2024-03-06T03:06:44;25.45;;;12.95;;
77586;SDS011;66744;49.716;17.158;2024-03-06T03:09:47;25.27;;;14.68;;
77586;SDS011;66744;49.716;17.158;2024-03-06T03:12:51;30.92;;;13.80;;
77586;SDS011;66744;49.716;17.158;2024-03-06T03:15:57;29.13;;;14.63;;
77586;SDS011;66744;49.716;17.158;2024-03-06T03:18:59;26.73;;;14.00;;
77586;SDS011;66744;49.716;17.158;2024-03-06T03:22:04;32.22;;;15.85;;
77586;SDS011;66744;49.716;17.158;2024-03-06T03:25:08;30.77;;;15.38;;
77586;SDS011;66744;49.716;17.158;2024-03-06T03:28:11;38.05;;;20.20;;
77586;SDS011;66744;49.716;17.158;2024-03-06T03:31:14;37.78;;;18.63;;
77586;SDS011;66744;49.716;17.158;2024-03-06T03:34:15;35.45;;;17.08;;
77586;SDS011;66744;49.716;17.158;2024-03-06T03:37:18;35.70;;;18.85;;
77586;SDS011;66744;49.716;17.158;2024-03-06T03:40:21;36.30;;;17.75;;
77586;SDS011;66744;49.716;17.158;2024-03-06T03:43:24;35.83;;;18.27;;
77586;SDS011;66744;49.716;17.158;2024-03-06T03:46:26;39.30;;;18.25;;
77586;SDS011;66744;49.716;17.158;2024-03-06T03:49:29;39.53;;;18.77;;
77586;SDS011;66744;49.716;17.158;2024-03-06T03:52:33;38.28;;;19.90;;
77586;SDS011;66744;49.716;17.158;2024-03-06T03:55:35;45.90;;;19.48;;
77586;SDS011;66744;49.716;17.158;2024-03-06T03:58:38;47.67;;;21.23;;
77586;SDS011;66744;49.716;17.158;2024-03-06T04:01:47;43.03;;;21.70;;
77586;SDS011;66744;49.716;17.158;2024-03-06T04:04:52;45.97;;;22.17;;
77586;SDS011;66744;49.716;17.158;2024-03-06T04:07:54;46.45;;;21.05;;
77586;SDS011;66744;49.716;17.158;2024-03-06T04:10:57;47.85;;;22.35;;
77586;SDS011;66744;49.716;17.158;2024-03-06T04:13:58;36.97;;;18.80;;
77586;SDS011;66744;49.716;17.158;2024-03-06T04:17:01;32.80;;;17.23;;
77586;SDS011;66744;49.716;17.158;2024-03-06T04:20:04;39.42;;;18.30;;
77586;SDS011;66744;49.716;17.158;2024-03-06T04:23:09;35.13;;;17.67;;
77586;SDS011;66744;49.716;17.158;2024-03-06T04:26:13;38.50;;;19.00;;
77586;SDS011;66744;49.716;17.158;2024-03-06T04:29:16;45.13;;;22.27;;
77586;SDS011;66744;49.716;17.158;2024-03-06T04:32:19;42.47;;;21.00;;
77586;SDS011;66744;49.716;17.158;2024-03-06T04:35:20;40.65;;;20.55;;
77586;SDS011;66744;49.716;17.158;2024-03-06T04:38:22;35.92;;;18.75;;
77586;SDS011;66744;49.716;17.158;2024-03-06T04:41:25;41.10;;;18.60;;
77586;SDS011;66744;49.716;17.158;2024-03-06T04:44:33;46.53;;;20.23;;
77586;SDS011;66744;49.716;17.158;2024-03-06T04:47:37;42.42;;;20.20;;
77586;SDS011;66744;49.716;17.158;2024-03-06T04:50:40;43.80;;;21.17;;
77586;SDS011;66744;49.716;17.158;2024-03-06T04:53:44;45.17;;;21.75;;
77586;SDS011;66744;49.716;17.158;2024-03-06T04:56:45;38.72;;;20.60;;
77586;SDS011;66744;49.716;17.158;2024-03-06T04:59:49;40.30;;;20.27;;
77586;SDS011;66744;49.716;17.158;2024-03-06T05:02:54;39.13;;;19.92;;
77586;SDS011;66744;49.716;17.158;2024-03-06T05:05:57;40.55;;;19.98;;
77586;SDS011;66744;49.716;17.158;2024-03-06T05:08:59;40.70;;;21.30;;
77586;SDS011;66744;49.716;17.158;2024-03-06T05:12:03;42.67;;;19.48;;
77586;SDS011;66744;49.716;17.158;2024-03-06T05:15:06;42.05;;;19.98;;
77586;SDS011;66744;49.716;17.158;2024-03-06T05:18:12;38.65;;;20.17;;
77586;SDS011;66744;49.716;17.158;2024-03-06T05:21:16;40.13;;;20.98;;
77586;SDS011;66744;49.716;17.158;2024-03-06T05:24:18;37.35;;;19.48;;
77586;SDS011;66744;49.716;17.158;2024-03-06T05:27:22;40.80;;;21.27;;
77586;SDS011;66744;49.716;17.158;2024-03-06T05:30:24;38.33;;;18.00;;
77586;SDS011;66744;49.716;17.158;2024-03-06T05:33:28;36.45;;;19.40;;
77586;SDS011;66744;49.716;17.158;2024-03-06T05:36:32;36.90;;;18.02;;
77586;SDS011;66744;49.716;17.158;2024-03-06T05:39:35;30.40;;;16.58;;
77586;SDS011;66744;49.716;17.158;2024-03-06T05:42:44;40.10;;;18.85;;
77586;SDS011;66744;49.716;17.158;2024-03-06T05:45:51;37.85;;;18.77;;
77586;SDS011;66744;49.716;17.158;2024-03-06T05:48:54;39.17;;;19.55;;
77586;SDS011;66744;49.716;17.158;2024-03-06T05:51:56;47.13;;;22.02;;
77586;SDS011;66744;49.716;17.158;2024-03-06T05:55:00;42.10;;;20.65;;
77586;SDS011;66744;49.716;17.158;2024-03-06T05:58:05;37.00;;;18.75;;
77586;SDS011;66744;49.716;17.158;2024-03-06T06:01:06;46.95;;;21.48;;
77586;SDS011;66744;49.716;17.158;2024-03-06T06:04:08;57.13;;;26.58;;
77586;SDS011;66744;49.716;17.158;2024-03-06T06:07:17;51.90;;;25.70;;
77586;SDS011;66744;49.716;17.158;2024-03-06T06:10:24;53.95;;;24.33;;
77586;SDS011;66744;49.716;17.158;2024-03-06T06:13:35;47.78;;;22.13;;
77586;SDS011;66744;49.716;17.158;2024-03-06T06:16:40;58.65;;;26.20;;
77586;SDS011;66744;49.716;17.158;2024-03-06T06:19:46;60.83;;;27.10;;
77586;SDS011;66744;49.716;17.158;2024-03-06T06:22:52;60.17;;;24.60;;
77586;SDS011;66744;49.716;17.158;2024-03-06T06:25:55;52.50;;;24.52;;
77586;SDS011;66744;49.716;17.158;2024-03-06T06:29:04;50.42;;;24.77;;
77586;SDS011;66744;49.716;17.158;2024-03-06T06:32:09;49.38;;;23.25;;
77586;SDS011;66744;49.716;17.158;2024-03-06T06:35:14;51.20;;;23.98;;
77586;SDS011;66744;49.716;17.158;2024-03-06T06:38:16;51.42;;;23.77;;
77586;SDS011;66744;49.716;17.158;2024-03-06T06:41:21;44.78;;;21.48;;
77586;SDS011;66744;49.716;17.158;2024-03-06T06:44:26;42.22;;;21.35;;
77586;SDS011;66744;49.716;17.158;2024-03-06T06:47:28;49.22;;;23.83;;
77586;SDS011;66744;49.716;17.158;2024-03-06T06:50:29;50.92;;;22.92;;
77586;SDS011;66744;49.716;17.158;2024-03-06T06:53:39;47.08;;;22.75;;
77586;SDS011;66744;49.716;17.158;2024-03-06T06:56:46;45.97;;;21.13;;
77586;SDS011;66744;49.716;17.158;2024-03-06T06:59:48;44.75;;;22.48;;
77586;SDS011;66744;49.716;17.158;2024-03-06T07:02:50;42.45;;;22.17;;
77586;SDS011;66744;49.716;17.158;2024-03-06T07:05:52;48.92;;;21.80;;
77586;SDS011;66744;49.716;17.158;2024-03-06T07:08:57;39.67;;;20.85;;
77586;SDS011;66744;49.716;17.158;2024-03-06T07:11:59;39.20;;;19.15;;
77586;SDS011;66744;49.716;17.158;2024-03-06T07:15:03;41.45;;;20.20;;
77586;SDS011;66744;49.716;17.158;2024-03-06T07:18:08;40.53;;;18.95;;
77586;SDS011;66744;49.716;17.158;2024-03-06T07:21:11;41.15;;;20.88;;
77586;SDS011;66744;49.716;17.158;2024-03-06T07:24:18;41.55;;;19.38;;
77586;SDS011;66744;49.716;17.158;2024-03-06T07:27:22;35.30;;;19.30;;
77586;SDS011;66744;49.716;17.158;2024-03-06T07:30:27;36.08;;;18.65;;
77586;SDS011;66744;49.716;17.158;2024-03-06T07:33:30;32.95;;;17.75;;
77586;SDS011;66744;49.716;17.158;2024-03-06T07:36:35;33.05;;;17.67;;
77586;SDS011;66744;49.716;17.158;2024-03-06T07:39:38;35.45;;;18.52;;
77586;SDS011;66744;49.716;17.158;2024-03-06T07:42:41;36.40;;;18.15;;
77586;SDS011;66744;49.716;17.158;2024-03-06T07:45:47;30.20;;;16.38;;
77586;SDS011;66744;49.716;17.158;2024-03-06T07:48:52;29.08;;;15.20;;
77586;SDS011;66744;49.716;17.158;2024-03-06T07:51:59;26.60;;;13.65;;
77586;SDS011;66744;49.716;17.158;2024-03-06T07:55:02;27.08;;;14.73;;
77586;SDS011;66744;49.716;17.158;2024-03-06T07:58:05;32.83;;;16.52;;
77586;SDS011;66744;49.716;17.158;2024-03-06T08:01:10;31.08;;;15.52;;
77586;SDS011;66744;49.716;17.158;2024-03-06T08:04:12;28.88;;;15.52;;
77586;SDS011;66744;49.716;17.158;2024-03-06T08:07:15;27.65;;;14.23;;
77586;SDS011;66744;49.716;17.158;2024-03-06T08:10:18;30.08;;;16.38;;
77586;SDS011;66744;49.716;17.158;2024-03-06T08:13:20;32.63;;;16.00;;
77586;SDS011;66744;49.716;17.158;2024-03-06T08:16:23;29.60;;;15.98;;
77586;SDS011;66744;49.716;17.158;2024-03-06T08:19:27;29.30;;;14.13;;
77586;SDS011;66744;49.716;17.158;2024-03-06T08:22:30;29.52;;;15.85;;
77586;SDS011;66744;49.716;17.158;2024-03-06T08:25:32;28.15;;;14.82;;
77586;SDS011;66744;49.716;17.158;2024-03-06T08:28:33;28.55;;;16.92;;
77586;SDS011;66744;49.716;17.158;2024-03-06T08:31:37;27.13;;;15.27;;
77586;SDS011;66744;49.716;17.158;2024-03-06T08:34:41;29.83;;;14.98;;
77586;SDS011;66744;49.716;17.158;2024-03-06T08:37:44;29.48;;;16.15;;
77586;SDS011;66744;49.716;17.158;2024-03-06T08:40:45;28.40;;;15.93;;
77586;SDS011;66744;49.716;17.158;2024-03-06T08:43:47;29.77;;;15.75;;
77586;SDS011;66744;49.716;17.158;2024-03-06T08:46:48;29.25;;;15.88;;
77586;SDS011;66744;49.716;17.158;2024-03-06T08:49:51;28.92;;;16.05;;
77586;SDS011;66744;49.716;17.158;2024-03-06T08:52:55;28.92;;;14.00;;
77586;SDS011;66744;49.716;17.158;2024-03-06T08:55:58;29.85;;;15.38;;
77586;SDS011;66744;49.716;17.158;2024-03-06T08:59:08;28.30;;;15.82;;
77586;SDS011;66744;49.716;17.158;2024-03-06T09:02:18;33.75;;;15.82;;
77586;SDS011;66744;49.716;17.158;2024-03-06T09:05:22;34.13;;;16.50;;
77586;SDS011;66744;49.716;17.158;2024-03-06T09:08:24;37.35;;;17.92;;
77586;SDS011;66744;49.716;17.158;2024-03-06T09:11:28;34.03;;;15.98;;
77586;SDS011;66744;49.716;17.158;2024-03-06T09:14:35;26.65;;;15.30;;
77586;SDS011;66744;49.716;17.158;2024-03-06T09:17:37;29.67;;;14.70;;
77586;SDS011;66744;49.716;17.158;2024-03-06T09:20:40;33.78;;;16.40;;
77586;SDS011;66744;49.716;17.158;2024-03-06T09:23:42;30.27;;;15.48;;
77586;SDS011;66744;49.716;17.158;2024-03-06T09:26:47;26.70;;;14.88;;
77586;SDS011;66744;49.716;17.158;2024-03-06T09:29:49;27.27;;;14.32;;
77586;SDS011;66744;49.716;17.158;2024-03-06T09:32:52;28.63;;;17.00;;
77586;SDS011;66744;49.716;17.158;2024-03-06T09:35:55;30.30;;;14.65;;
77586;SDS011;66744;49.716;17.158;2024-03-06T09:39:04;23.02;;;13.70;;
77586;SDS011;66744;49.716;17.158;2024-03-06T09:42:07;22.83;;;13.35;;
77586;SDS011;66744;49.716;17.158;2024-03-06T09:45:10;23.77;;;13.05;;
77586;SDS011;66744;49.716;17.158;2024-03-06T09:48:12;25.17;;;12.98;;
77586;SDS011;66744;49.716;17.158;2024-03-06T09:51:14;24.92;;;13.68;;
77586;SDS011;66744;49.716;17.158;2024-03-06T09:54:17;21.65;;;12.00;;
77586;SDS011;66744;49.716;17.158;2024-03-06T09:57:21;21.25;;;13.90;;
77586;SDS011;66744;49.716;17.158;2024-03-06T10:00:24;21.92;;;12.18;;
77586;SDS011;66744;49.716;17.158;2024-03-06T10:03:27;23.05;;;11.50;;
77586;SDS011;66744;49.716;17.158;2024-03-06T10:06:28;20.08;;;11.98;;
77586;SDS011;66744;49.716;17.158;2024-03-06T10:09:32;18.58;;;11.10;;
77586;SDS011;66744;49.716;17.158;2024-03-06T10:12:34;22.50;;;11.40;;
77586;SDS011;66744;49.716;17.158;2024-03-06T10:15:41;18.83;;;10.73;;
77586;SDS011;66744;49.716;17.158;2024-03-06T10:18:44;19.65;;;11.85;;
77586;SDS011;66744;49.716;17.158;2024-03-06T10:21:46;20.20;;;10.40;;
77586;SDS011;66744;49.716;17.158;2024-03-06T10:24:55;15.85;;;10.18;;
77586;SDS011;66744;49.716;17.158;2024-03-06T10:28:07;19.85;;;11.05;;
77586;SDS011;66744;49.716;17.158;2024-03-06T10:31:13;20.23;;;11.80;;
77586;SDS011;66744;49.716;17.158;2024-03-06T10:34:18;19.60;;;12.13;;
77586;SDS011;66744;49.716;17.158;2024-03-06T10:37:25;19.88;;;11.88;;
77586;SDS011;66744;49.716;17.158;2024-03-06T10:40:36;24.65;;;12.10;;
77586;SDS011;66744;49.716;17.158;2024-03-06T10:43:40;22.02;;;12.20;;
77586;SDS011;66744;49.716;17.158;2024-03-06T10:46:47;26.08;;;13.70;;
77586;SDS011;66744;49.716;17.158;2024-03-06T10:49:57;20.83;;;11.52;;
77586;SDS011;66744;49.716;17.158;2024-03-06T10:53:08;20.63;;;12.95;;
77586;SDS011;66744;49.716;17.158;2024-03-06T10:56:15;19.90;;;12.52;;
77586;SDS011;66744;49.716;17.158;2024-03-06T10:59:21;18.48;;;10.27;;
77586;SDS011;66744;49.716;17.158;2024-03-06T11:02:33;19.55;;;9.95;;
77586;SDS011;66744;49.716;17.158;2024-03-06T11:05:40;14.95;;;8.80;;
77586;SDS011;66744;49.716;17.158;2024-03-06T11:08:45;16.83;;;9.10;;
77586;SDS011;66744;49.716;17.158;2024-03-06T11:11:49;18.95;;;9.82;;
77586;SDS011;66744;49.716;17.158;2024-03-06T11:14:55;15.93;;;10.02;;
77586;SDS011;66744;49.716;17.158;2024-03-06T11:17:58;19.13;;;10.40;;
77586;SDS011;66744;49.716;17.158;2024-03-06T11:24:14;18.23;;;9.90;;
77586;SDS011;66744;49.716;17.158;2024-03-06T11:30:26;16.75;;;9.73;;
77586;SDS011;66744;49.716;17.158;2024-03-06T11:33:44;18.25;;;8.85;;
77586;SDS011;66744;49.716;17.158;2024-03-06T11:36:47;14.57;;;7.95;;
77586;SDS011;66744;49.716;17.158;2024-03-06T11:39:49;20.30;;;9.50;;
77586;SDS011;66744;49.716;17.158;2024-03-06T11:42:55;14.95;;;9.40;;
77586;SDS011;66744;49.716;17.158;2024-03-06T11:46:22;19.30;;;10.73;;
77586;SDS011;66744;49.716;17.158;2024-03-06T11:49:27;18.70;;;9.63;;
77586;SDS011;66744;49.716;17.158;2024-03-06T11:52:31;16.27;;;9.30;;
77586;SDS011;66744;49.716;17.158;2024-03-06T11:55:33;16.17;;;9.85;;
77586;SDS011;66744;49.716;17.158;2024-03-06T11:58:36;17.98;;;9.70;;
77586;SDS011;66744;49.716;17.158;2024-03-06T12:01:44;16.30;;;8.32;;
77586;SDS011;66744;49.716;17.158;2024-03-06T12:04:54;15.50;;;8.05;;
77586;SDS011;66744;49.716;17.158;2024-03-06T12:07:57;15.20;;;8.18;;
77586;SDS011;66744;49.716;17.158;2024-03-06T12:11:12;11.38;;;7.05;;
77586;SDS011;66744;49.716;17.158;2024-03-06T12:14:17;17.35;;;8.52;;
77586;SDS011;66744;49.716;17.158;2024-03-06T12:17:20;12.13;;;7.30;;
77586;SDS011;66744;49.716;17.158;2024-03-06T12:20:23;14.07;;;7.63;;
77586;SDS011;66744;49.716;17.158;2024-03-06T12:23:25;11.05;;;7.05;;
77586;SDS011;66744;49.716;17.158;2024-03-06T12:26:31;16.00;;;7.70;;
77586;SDS011;66744;49.716;17.158;2024-03-06T12:29:37;15.23;;;8.05;;
77586;SDS011;66744;49.716;17.158;2024-03-06T12:36:03;11.13;;;7.43;;
77586;SDS011;66744;49.716;17.158;2024-03-06T12:39:07;13.73;;;7.85;;
77586;SDS011;66744;49.716;17.158;2024-03-06T12:42:15;12.30;;;7.07;;
77586;SDS011;66744;49.716;17.158;2024-03-06T12:45:17;10.82;;;7.07;;
77586;SDS011;66744;49.716;17.158;2024-03-06T12:48:26;14.30;;;7.47;;
77586;SDS011;66744;49.716;17.158;2024-03-06T12:51:30;13.93;;;7.45;;
77586;SDS011;66744;49.716;17.158;2024-03-06T12:54:36;11.65;;;7.40;;
77586;SDS011;66744;49.716;17.158;2024-03-06T12:57:41;14.90;;;8.98;;
77586;SDS011;66744;49.716;17.158;2024-03-06T13:00:45;11.20;;;8.20;;
77586;SDS011;66744;49.716;17.158;2024-03-06T13:03:49;13.38;;;8.45;;
77586;SDS011;66744;49.716;17.158;2024-03-06T13:06:51;11.90;;;7.60;;
77586;SDS011;66744;49.716;17.158;2024-03-06T13:09:55;13.80;;;8.07;;
77586;SDS011;66744;49.716;17.158;2024-03-06T13:12:57;13.10;;;8.15;;
77586;SDS011;66744;49.716;17.158;2024-03-06T13:15:58;12.45;;;7.80;;
77586;SDS011;66744;49.716;17.158;2024-03-06T13:19:01;14.30;;;9.05;;
77586;SDS011;66744;49.716;17.158;2024-03-06T13:22:05;14.00;;;8.38;;
77586;SDS011;66744;49.716;17.158;2024-03-06T13:25:09;15.00;;;8.80;;
77586;SDS011;66744;49.716;17.158;2024-03-06T13:28:12;13.57;;;8.07;;
77586;SDS011;66744;49.716;17.158;2024-03-06T13:31:15;12.95;;;7.75;;
77586;SDS011;66744;49.716;17.158;2024-03-06T13:34:18;16.20;;;8.57;;
77586;SDS011;66744;49.716;17.158;2024-03-06T13:37:20;15.55;;;9.02;;
77586;SDS011;66744;49.716;17.158;2024-03-06T13:40:26;13.07;;;7.95;;
77586;SDS011;66744;49.716;17.158;2024-03-06T13:43:28;15.77;;;9.07;;
77586;SDS011;66744;49.716;17.158;2024-03-06T13:46:31;16.42;;;8.48;;
77586;SDS011;66744;49.716;17.158;2024-03-06T13:52:43;13.73;;;8.80;;
77586;SDS011;66744;49.716;17.158;2024-03-06T13:55:46;17.83;;;9.80;;
77586;SDS011;66744;49.716;17.158;2024-03-06T13:58:50;15.63;;;9.90;;
77586;SDS011;66744;49.716;17.158;2024-03-06T14:01:55;15.63;;;8.38;;
77586;SDS011;66744;49.716;17.158;2024-03-06T14:05:01;17.00;;;10.52;;
77586;SDS011;66744;49.716;17.158;2024-03-06T14:08:04;18.23;;;9.30;;
77586;SDS011;66744;49.716;17.158;2024-03-06T14:11:06;13.70;;;8.95;;
77586;SDS011;66744;49.716;17.158;2024-03-06T14:14:08;18.50;;;9.95;;
77586;SDS011;66744;49.716;17.158;2024-03-06T14:17:09;14.18;;;9.90;;
77586;SDS011;66744;49.716;17.158;2024-03-06T14:20:10;13.88;;;8.23;;
77586;SDS011;66744;49.716;17.158;2024-03-06T14:23:22;12.50;;;8.00;;
77586;SDS011;66744;49.716;17.158;2024-03-06T14:26:24;14.95;;;8.30;;
77586;SDS011;66744;49.716;17.158;2024-03-06T14:29:31;13.65;;;7.97;;
77586;SDS011;66744;49.716;17.158;2024-03-06T14:32:36;17.75;;;10.00;;
77586;SDS011;66744;49.716;17.158;2024-03-06T14:35:43;17.75;;;9.18;;
77586;SDS011;66744;49.716;17.158;2024-03-06T14:38:47;15.20;;;9.50;;
77586;SDS011;66744;49.716;17.158;2024-03-06T14:41:51;19.48;;;10.45;;
77586;SDS011;66744;49.716;17.158;2024-03-06T14:45:00;21.17;;;12.23;;
77586;SDS011;66744;49.716;17.158;2024-03-06T14:48:05;20.08;;;12.02;;
77586;SDS011;66744;49.716;17.158;2024-03-06T14:51:06;20.27;;;11.25;;
77586;SDS011;66744;49.716;17.158;2024-03-06T14:54:10;19.30;;;11.75;;
77586;SDS011;66744;49.716;17.158;2024-03-06T14:57:12;21.55;;;13.73;;
77586;SDS011;66744;49.716;17.158;2024-03-06T15:00:16;17.65;;;10.77;;
77586;SDS011;66744;49.716;17.158;2024-03-06T15:03:22;19.77;;;11.70;;
77586;SDS011;66744;49.716;17.158;2024-03-06T15:06:25;22.63;;;13.30;;
77586;SDS011;66744;49.716;17.158;2024-03-06T15:09:29;26.38;;;14.50;;
77586;SDS011;66744;49.716;17.158;2024-03-06T15:12:33;21.80;;;12.82;;
77586;SDS011;66744;49.716;17.158;2024-03-06T15:15:38;23.70;;;14.88;;
77586;SDS011;66744;49.716;17.158;2024-03-06T15:18:42;24.45;;;14.60;;
77586;SDS011;66744;49.716;17.158;2024-03-06T15:21:53;25.95;;;15.50;;
77586;SDS011;66744;49.716;17.158;2024-03-06T15:24:58;24.23;;;14.55;;
77586;SDS011;66744;49.716;17.158;2024-03-06T15:28:02;22.15;;;13.13;;
77586;SDS011;66744;49.716;17.158;2024-03-06T15:31:05;23.30;;;14.05;;
77586;SDS011;66744;49.716;17.158;2024-03-06T15:34:09;26.00;;;13.57;;
77586;SDS011;66744;49.716;17.158;2024-03-06T15:37:16;25.73;;;13.40;;
77586;SDS011;66744;49.716;17.158;2024-03-06T15:40:18;26.50;;;14.13;;
77586;SDS011;66744;49.716;17.158;2024-03-06T15:43:31;27.90;;;14.88;;
77586;SDS011;66744;49.716;17.158;2024-03-06T15:46:37;26.90;;;15.48;;
77586;SDS011;66744;49.716;17.158;2024-03-06T15:49:48;24.63;;;15.07;;
77586;SDS011;66744;49.716;17.158;2024-03-06T15:52:50;26.38;;;15.38;;
77586;SDS011;66744;49.716;17.158;2024-03-06T15:55:52;29.88;;;17.73;;
77586;SDS011;66744;49.716;17.158;2024-03-06T15:58:57;28.63;;;16.88;;
77586;SDS011;66744;49.716;17.158;2024-03-06T16:01:58;28.58;;;17.35;;
77586;SDS011;66744;49.716;17.158;2024-03-06T16:05:05;33.28;;;17.23;;
77586;SDS011;66744;49.716;17.158;2024-03-06T16:08:17;27.30;;;16.25;;
77586;SDS011;66744;49.716;17.158;2024-03-06T16:11:19;30.33;;;17.48;;
77586;SDS011;66744;49.716;17.158;2024-03-06T16:14:23;25.25;;;14.77;;
77586;SDS011;66744;49.716;17.158;2024-03-06T16:17:28;24.60;;;15.27;;
77586;SDS011;66744;49.716;17.158;2024-03-06T16:20:32;22.92;;;15.00;;
77586;SDS011;66744;49.716;17.158;2024-03-06T16:23:35;25.05;;;15.18;;
77586;SDS011;66744;49.716;17.158;2024-03-06T16:26:37;25.85;;;16.05;;
77586;SDS011;66744;49.716;17.158;2024-03-06T16:29:45;27.33;;;17.02;;
77586;SDS011;66744;49.716;17.158;2024-03-06T16:32:49;26.45;;;16.55;;
77586;SDS011;66744;49.716;17.158;2024-03-06T16:35:51;29.40;;;17.27;;
77586;SDS011;66744;49.716;17.158;2024-03-06T16:38:53;46.35;;;27.90;;
77586;SDS011;66744;49.716;17.158;2024-03-06T16:41:57;55.30;;;35.15;;
77586;SDS011;66744;49.716;17.158;2024-03-06T16:44:59;49.92;;;32.05;;
77586;SDS011;66744;49.716;17.158;2024-03-06T16:48:04;44.45;;;27.55;;
77586;SDS011;66744;49.716;17.158;2024-03-06T16:51:07;29.70;;;17.08;;
77586;SDS011;66744;49.716;17.158;2024-03-06T16:54:13;38.95;;;24.75;;
77586;SDS011;66744;49.716;17.158;2024-03-06T16:57:16;35.00;;;21.27;;
77586;SDS011;66744;49.716;17.158;2024-03-06T17:00:20;61.70;;;34.20;;
77586;SDS011;66744;49.716;17.158;2024-03-06T17:03:24;38.17;;;23.48;;
77586;SDS011;66744;49.716;17.158;2024-03-06T17:06:28;29.13;;;20.05;;
77586;SDS011;66744;49.716;17.158;2024-03-06T17:09:36;29.10;;;16.35;;
77586;SDS011;66744;49.716;17.158;2024-03-06T17:12:38;37.60;;;23.27;;
77586;SDS011;66744;49.716;17.158;2024-03-06T17:15:43;23.77;;;13.50;;
77586;SDS011;66744;49.716;17.158;2024-03-06T17:18:48;21.13;;;12.68;;
77586;SDS011;66744;49.716;17.158;2024-03-06T17:21:52;24.40;;;15.68;;
77586;SDS011;66744;49.716;17.158;2024-03-06T17:24:58;20.73;;;12.38;;
77586;SDS011;66744;49.716;17.158;2024-03-06T17:27:59;23.55;;;14.55;;
77586;SDS011;66744;49.716;17.158;2024-03-06T17:31:04;19.10;;;11.75;;
77586;SDS011;66744;49.716;17.158;2024-03-06T17:34:07;19.75;;;11.07;;
77586;SDS011;66744;49.716;17.158;2024-03-06T17:37:08;16.92;;;10.05;;
77586;SDS011;66744;49.716;17.158;2024-03-06T17:40:10;15.05;;;10.02;;
77586;SDS011;66744;49.716;17.158;2024-03-06T17:43:14;13.45;;;7.07;;
77586;SDS011;66744;49.716;17.158;2024-03-06T17:46:17;15.10;;;7.90;;
77586;SDS011;66744;49.716;17.158;2024-03-06T17:49:20;13.13;;;6.90;;
77586;SDS011;66744;49.716;17.158;2024-03-06T17:52:23;9.98;;;6.13;;
77586;SDS011;66744;49.716;17.158;2024-03-06T17:55:29;8.50;;;4.95;;
77586;SDS011;66744;49.716;17.158;2024-03-06T17:58:30;8.32;;;4.93;;